Alta, California
Current Conditions -  °F | °C
As of 8:52 AM on Thursday 23 Oct 2014 (Local Time) from KBLU Reporting Station
Broken Clouds Broken Clouds  
Wind Chill: 11°   Ceiling: 12000
Heat Index: 11°   Visibility: 10mi
Dew Point:   Wind: 6mph
Humidity: 48%   Direction: 140°SE
Pressure: 30.19"   Gusts: NA
Location:  39.21°N, 120.81°W
Report Text: KBLU 231552Z AUTO 14005KT 10SM BKN120 11/00 A3019 RMK AO2 SLP181 T01060000 $
Loading
Personal Weather Stations






























Interactive Weather Map
Tropical Storm Tracking
New forecast layout! Learn more

10-Day Weather Forecast

Advertisements
Track Severe Weather on mobile